Погода Васкона неделю

Калифорния, США

01 - 07 сентября
  • 01сентября
    Сегодня
    +12°
    +29°
    Ясно и безоблачно
    ВремяПогодаТемператураВлажностьДавлениеВетер, м/сВероятность осадков
    02:00Ясно и безоблачно+16°C52 %751 мм4.3 м/с2 %
    05:00Ясно и безоблачно+14°C65 %751 мм3.2 м/с2 %
    08:00Ясно и безоблачно+15°C63 %753 мм2.7 м/с2 %
    11:00Ясно и безоблачно+21°C42 %753 мм2.7 м/с2 %
    14:00Ясно и безоблачно+26°C26 %752 мм2.4 м/с2 %
    17:00Ясно и безоблачно+28°C21 %750 мм2.9 м/с2 %
    20:00Ясно и безоблачно+21°C36 %751 мм5.9 м/с2 %
    23:00Ясно и безоблачно+18°C43 %752 мм4.8 м/с2 %
  • 02сентября
    Среда
    +14°
    +28°
    Ясно и безоблачно
    ВремяПогодаТемператураВлажностьДавлениеВетер, м/сВероятность осадков
    02:00Ясно и безоблачно+15°C53 %753 мм1.9 м/с2 %
    05:00Ясно и безоблачно+13°C63 %753 мм1.4 м/с2 %
    08:00Ясно и безоблачно+15°C58 %754 мм1.5 м/с2 %
    11:00Ясно и безоблачно+20°C39 %754 мм1.6 м/с2 %
    14:00Ясно и безоблачно+26°C26 %753 мм1.7 м/с2 %
    17:00Ясно и безоблачно+28°C21 %751 мм2.2 м/с2 %
    20:00Ясно и безоблачно+24°C27 %751 мм0.9 м/с2 %
    23:00Ясно и безоблачно+21°C35 %751 мм3.9 м/с2 %
  • 03сентября
    Четверг
    +15°
    +29°
    Ясно и безоблачно
    ВремяПогодаТемператураВлажностьДавлениеВетер, м/сВероятность осадков
    02:00Ясно и безоблачно+18°C52 %752 мм3.0 м/с2 %
    05:00Ясно и безоблачно+15°C60 %752 мм1.9 м/с2 %
    08:00Ясно и безоблачно+16°C58 %753 мм2.3 м/с2 %
    11:00Ясно и безоблачно+22°C41 %752 мм1.6 м/с2 %
    14:00Ясно и безоблачно+27°C27 %750 мм1.7 м/с2 %
    17:00Ясно и безоблачно+29°C21 %748 мм2.2 м/с2 %
    20:00Ясно и безоблачно+25°C25 %748 мм1.5 м/с2 %
    23:00Ясно и безоблачно+21°C37 %749 мм5.1 м/с2 %
  • 04сентября
    Пятница
    +15°
    +29°
    Ясно и безоблачно
    ВремяПогодаТемператураВлажностьДавлениеВетер, м/сВероятность осадков
    02:00Ясно и безоблачно+18°C50 %749 мм3.3 м/с2 %
    05:00Ясно и безоблачно+16°C63 %750 мм1.6 м/с2 %
    08:00Ясно и безоблачно+17°C68 %751 мм2.2 м/с2 %
    11:00Ясно и безоблачно+22°C48 %751 мм2.1 м/с2 %
    14:00Ясно и безоблачно+27°C31 %750 мм1.8 м/с2 %
    17:00Ясно и безоблачно+29°C26 %748 мм2.2 м/с2 %
    20:00Ясно и безоблачно+26°C33 %749 мм6.1 м/с2 %
    23:00Ясно и безоблачно+21°C43 %750 мм4.3 м/с2 %
  • 05сентября
    Суббота
    +16°
    +31°
    Ясно и безоблачно
    ВремяПогодаТемператураВлажностьДавлениеВетер, м/сВероятность осадков
    02:00Ясно и безоблачно+18°C48 %751 мм2.4 м/с2 %
    05:00Ясно и безоблачно+16°C55 %751 мм1.3 м/с2 %
    08:00Ясно и безоблачно+17°C49 %752 мм0.9 м/с3 %
    11:00Ясно и безоблачно+23°C33 %752 мм1.8 м/с4 %
    14:00Ясно и безоблачно+28°C21 %750 мм2.0 м/с3 %
    17:00Ясно и безоблачно+31°C17 %749 мм3.2 м/с4 %
    20:00Ясно и безоблачно+26°C24 %749 мм5.8 м/с8 %
    23:00Ясно и безоблачно+21°C35 %751 мм2.6 м/с12 %
  • 06сентября
    Воскресенье
    +18°
    +33°
    Ясно и безоблачно
    ВремяПогодаТемператураВлажностьДавлениеВетер, м/сВероятность осадков
    05:00Ясно и безоблачно+17°C45 %751 мм1.8 м/с19 %
    11:00Ясно и безоблачно+23°C29 %752 мм1.9 м/с28 %
    17:00Ясно и безоблачно+32°C20 %749 мм3.3 м/с25 %
    23:00Ясно и безоблачно+24°C33 %751 мм2.2 м/с22 %
  • 07сентября
    Понедельник
    +18°
    +33°
    Ясно и безоблачно
    ВремяПогодаТемператураВлажностьДавлениеВетер, м/сВероятность осадков
    05:00Ясно и безоблачно+18°C58 %752 мм1.9 м/с18 %
    11:00Ясно и безоблачно+26°C34 %752 мм1.4 м/с20 %
    17:00Ясно и безоблачно+32°C18 %749 мм2.4 м/с13 %
    23:00Ясно и безоблачно+24°C32 %750 мм1.6 м/с8 %
Мы используем cookies
Соглашаюсь